Tiempo atmosférico en la estación meteorológica de San Cristóbal de La Laguna,Llano de los Loros, Santa Cruz de Tenerife (868 m.)



Fecha
DESCASC
Temp. máxima en grados centígrados (hora)
DESCASC
Temp. mínima en grados centígrados (hora)
DESCASC
Temp. media en grados centígrados
DESCASC
Racha de viento máxima en m/sg (hora)
DESCASC
Velocidad máxima media en intervalos de 10 minutos(hora)
DESCASC
Precipitaciones diarias en mm
DESCASC
Precipitaciones de 00:00 a 06:00 en mm
DESCASC
Precipitaciones de 06:00 a 12:00 en mm
DESCASC
Precipitaciones de 12:00 a 18:00 en mm
DESCASC
Precipitaciones de 18:00 a 24:00 en mm
DESCASC
25-04-2019 15.2 (12:50) 9.4 (04:50) 12.3 15.56 (05:00) 10.56 (03:10) 0.2 0.2 0 0 0
24-04-2019 17 (14:30) 9 (07:30) 13 13.06 (03:40) 7.78 (23:59) 0 0 0 0 0
23-04-2019 13.4 (11:10) 9.5 (23:20) 11.4 15.56 (01:00) 7.78 (20:20) 11.2 0 0 11 0.2
22-04-2019 18.3 (16:00) 9.7 (00:00) 14 15 (02:50) 11.39 (01:00) 0 0 0 0 0
21-04-2019 14.4 (15:00) 9.8 (00:00) 12.1 15.28 (20:20) 11.11 (23:50) 0.6 0.6 0 0 0
20-04-2019 15 (15:40) 9 (00:00) 12 17.5 (01:00) 10 (00:20) 0.4 0 0.2 0 0.2
19-04-2019 11.9 (14:20) 8.9 (00:00) 10.4 19.72 (03:20) 10.83 (21:00) 0.2 0.2 0 0 0
18-04-2019 12.7 (16:30) 9.4 (00:00) 11 15 (21:00) 6.67 (12:20) 1.2 1.2 0 0 0
17-04-2019 15 (10:40) 9.5 (00:00) 12.3 12.78 (23:59) 6.39 (02:50) 5.8 0 0.2 5.6 0
16-04-2019 18.4 (15:10) 10.2 (00:00) 14.3 11.94 (23:20) 7.78 (22:50) 0.8 0 0 0 0.8
15-04-2019 22.6 (15:40) 10.2 (00:00) 16.4 15.28 (02:20) 11.39 (03:20) 0 0 0 0 0
14-04-2019 21.9 (12:40) 7.9 (00:00) 14.9 13.61 (20:40) 9.44 (21:00) 0 0 0 0 0
13-04-2019 18.4 (15:10) 9 (00:00) 13.7 13.61 (07:10) 6.67 (07:10) 0 0 0 0 0
12-04-2019 13.7 (15:00) 8.8 (00:00) 11.3 16.11 (19:30) 10.83 (19:20) 0.2 0.2 0 0 0
11-04-2019 13.7 (15:00) 8.8 (00:00) 11.3 17.22 (21:20) 8.33 (21:20) 0 0 0 0 0
10-04-2019 14 (14:30) 8.7 (00:00) 11.3 14.17 (15:00) 6.11 (19:30) 0.4 0 0.4 0 0
09-04-2019 14.1 (15:20) 9.1 (00:00) 11.6 12.22 (18:40) 6.94 (03:00) 2 0 1 1 0
08-04-2019 14.2 (15:00) 8.8 (00:00) 11.5 11.94 (21:40) 8.33 (21:50) 5.2 2.4 2.8 0 0
07-04-2019 14.7 (15:50) 8.5 (00:00) 11.6 11.39 (00:10) 7.78 (00:10) 0 0 0 0 0
06-04-2019 11.3 (13:30) 8.3 (00:00) 9.8 14.17 (01:30) 8.89 (17:50) 2.6 0.6 2 0 0
05-04-2019 12.7 (13:50) 8.5 (00:00) 10.6 15 (22:10) 7.22 (19:50) 2.4 0.6 0.6 1 0.2
04-04-2019 10.9 (13:40) 8.2 (00:00) 9.5 13.89 (18:10) 6.67 (11:00) 12 4.6 2.2 4.2 1
03-04-2019 -- (--) -- (--) -- -- (--) -- (--) -- 0 3.2 0 --
02-04-2019 12.9 (13:40) 9.7 (00:00) 11.3 9.72 (21:00) 7.22 (21:10) 15 3 2.4 7 2.6
01-04-2019 15.7 (11:10) 8.9 (00:00) 12.3 8.33 (03:10) 4.44 (03:20) 19 1.8 0 4.2 13
31-03-2019 14 (13:20) 8.6 (00:00) 11.3 9.72 (03:00) 5 (00:10) 1.2 0 0 1 0.2
30-03-2019 15.4 (15:40) 7.4 (00:00) 11.4 -- (--) -- (--) 0.2 0.2 0 0 0
29-03-2019 15.9 (11:30) 7.3 (00:00) 11.6 7.78 (20:30) 6.11 (20:30) 9.2 0 0.4 7.8 1
28-03-2019 19.4 (12:30) 7.7 (00:00) 13.5 6.39 (12:00) 3.89 (12:00) 0 0 0 0 0
27-03-2019 15.6 (14:20) 10 (00:00) 12.8 10.83 (02:10) 6.11 (20:30) 0.4 0.4 0 0 0

Gráficas

Temp. máximas Temp. mínimas Temp. medias Precipitaciones Rachas de viento máximas Velocidades máximas media en intervalos de 10 minutos

Datos horarios

Fecha y hora oficial Temperatura (ºC) Velocidad del viento (km/h) Dirección del viento Racha (km/h) Dirección de racha Precipitación (mm) Presión (hPa) Tendencia (hPa) Humedad (%)
2019-04-25 23:00:00 11.4 10 Noroeste 39 Noroeste 0 -- -- 96
2019-04-25 22:00:00 11.7 7 Noroeste 38 Oeste 0 -- -- 97
2019-04-25 21:00:00 11.8 19 Noroeste 49 Noroeste 0 -- -- 96
2019-04-25 20:00:00 11.7 16 Noroeste 40 Noroeste 0 -- -- 94
2019-04-25 19:00:00 12.2 19 Noroeste 45 Noroeste 0 -- -- 90
2019-04-25 18:00:00 13.9 18 Noroeste 39 Noroeste 0 -- -- 81
2019-04-25 17:00:00 14.9 11 Noroeste 36 Noroeste 0 -- -- 72
2019-04-25 16:00:00 15.2 12 Noroeste 33 Norte 0 -- -- 70
2019-04-25 15:00:00 15 18 Norte 35 Noroeste 0 -- -- 72
2019-04-25 14:00:00 14.9 19 Norte 33 Norte 0 -- -- 74
2019-04-25 13:00:00 15.1 14 Norte 27 Norte 0 -- -- 74
2019-04-25 12:00:00 14.3 11 Noroeste 26 Norte 0 -- -- 74
2019-04-25 11:00:00 13.5 8 Noroeste 24 Oeste 0 -- -- 75
2019-04-25 10:00:00 12.2 8 Noroeste 31 Oeste 0 -- -- 81
2019-04-25 09:00:00 10.7 15 Noroeste 41 Noroeste 0 -- -- 88
2019-04-25 08:00:00 9.5 29 Noroeste 47 Noroeste 0 -- -- 93
2019-04-25 07:00:00 9.5 26 Noroeste 43 Noroeste 0 -- -- 93
2019-04-25 06:00:00 9.7 26 Noroeste 49 Noroeste 0.2 -- -- 94
2019-04-25 05:00:00 9.4 37 Noroeste 56 Noroeste 0 -- -- 92
2019-04-25 04:00:00 9.5 36 Noroeste 53 Noroeste 0 -- -- 95
2019-04-25 03:00:00 9.8 37 Noroeste 53 Noroeste 0 -- -- 97
2019-04-25 02:00:00 9.7 37 Noroeste 51 Noroeste 0 -- -- 97
2019-04-25 01:00:00 9.8 31 Noroeste 44 Noroeste 0 -- -- 97
2019-04-25 00:00:00 9.8 28 Noroeste 37 Noroeste 0 -- -- 95
2019-04-24 23:00:00 9.7 19 Noroeste 33 Noroeste 0 -- -- 95
2019-04-24 22:00:00 10 24 Noroeste 40 Noroeste 0 -- -- 96
2019-04-24 21:00:00 10.2 26 Noroeste 39 Noroeste 0 -- -- 95
2019-04-24 20:00:00 10.8 20 Noroeste 32 Noroeste 0 -- -- 92
2019-04-24 19:00:00 12.1 12 Noroeste 26 Noroeste 0 -- -- 86
2019-04-24 18:00:00 13.3 7 Noroeste 25 Noroeste 0 -- -- 81
2019-04-24 17:00:00 15.2 10 Noroeste 27 Noroeste 0 -- -- 71
2019-04-24 16:00:00 15.6 9 Noroeste 19 Noroeste 0 -- -- 74
2019-04-24 15:00:00 16.1 6 Sur 17 Nordeste 0 -- -- 76
2019-04-24 14:00:00 16.1 5 Oeste 16 Noroeste 0 -- -- 72
2019-04-24 13:00:00 15.5 8 Noroeste 18 Noroeste 0 -- -- 76
2019-04-24 12:00:00 14.4 7 Noroeste 14 Oeste 0 -- -- 79
2019-04-24 11:00:00 13.1 6 Oeste 22 Noroeste 0 -- -- 83
2019-04-24 10:00:00 10.6 15 Noroeste 30 Noroeste 0 -- -- 95
2019-04-24 09:00:00 9.3 18 Noroeste 29 Noroeste 0 -- -- 99
2019-04-24 08:00:00 9.2 18 Noroeste 31 Noroeste 0 -- -- 99
2019-04-24 07:00:00 9.2 19 Noroeste 42 Noroeste 0 -- -- 98
2019-04-24 06:00:00 9.5 26 Noroeste 44 Noroeste 0 -- -- 98
2019-04-24 05:00:00 9.6 21 Noroeste 42 Noroeste 0 -- -- 99
2019-04-24 04:00:00 9.6 23 Noroeste 47 Noroeste 0 -- -- 98
2019-04-24 03:00:00 9.4 26 Noroeste 46 Noroeste 0 -- -- 98
2019-04-24 02:00:00 9.7 17 Noroeste 46 Noroeste 0 -- -- 98
2019-04-24 01:00:00 9.6 21 Noroeste 44 Noroeste 0 -- -- 98
2019-04-24 00:00:00 9.7 26 Noroeste 45 Noroeste 0 -- -- 98
2019-04-23 23:00:00 9.6 19 Noroeste 42 Noroeste 0.2 -- -- 98
2019-04-23 22:00:00 10 17 Noroeste 42 Noroeste 0 -- -- 98
2019-04-23 21:00:00 9.9 22 Noroeste 50 Norte 0 -- -- 97
2019-04-23 20:00:00 9.8 24 Noroeste 43 Noroeste 0 -- -- 97
2019-04-23 19:00:00 10 21 Noroeste 52 Noroeste 0 -- -- 97
2019-04-23 18:00:00 9.9 23 Noroeste 42 Noroeste 0 -- -- 97
2019-04-23 17:00:00 10.1 22 Noroeste 40 Noroeste 0.2 -- -- 98
2019-04-23 16:00:00 10.2 23 Noroeste 43 Noroeste 1.4 -- -- 98
2019-04-23 15:00:00 11 20 Noroeste 37 Noroeste 4.2 -- -- 97
2019-04-23 14:00:00 11.8 20 Noroeste 36 Noroeste 3.4 -- -- 97
2019-04-23 13:00:00 12 20 Noroeste 37 Noroeste 1.8 -- -- 96
2019-04-23 12:00:00 12 15 Noroeste 32 Noroeste 0 -- -- 92
2019-04-23 11:00:00 13.2 18 Noroeste 36 Oeste 0 -- -- 83
2019-04-23 10:00:00 11.6 17 Noroeste 43 Oeste 0 -- -- 94
2019-04-23 09:00:00 10.7 21 Noroeste 47 Noroeste 0 -- -- 97
2019-04-23 08:00:00 10.5 21 Noroeste 44 Noroeste 0 -- -- 97
2019-04-23 07:00:00 10.2 22 Noroeste 46 Noroeste 0 -- -- 98
2019-04-23 06:00:00 10.5 20 Noroeste 49 Noroeste 0 -- -- 98
2019-04-23 05:00:00 10.5 19 Noroeste 42 Noroeste 0 -- -- 98
2019-04-23 04:00:00 10.9 16 Noroeste 42 Norte 0 -- -- 98
2019-04-23 03:00:00 10.8 20 Noroeste 45 Noroeste 0 -- -- 98
2019-04-23 02:00:00 10.9 21 Noroeste 46 Noroeste 0 -- -- 97
2019-04-23 01:00:00 10.8 27 Noroeste 56 Noroeste 0 -- -- 97
2019-04-23 00:00:00 10.7 20 Noroeste 44 Noroeste 0 -- -- 97
2019-04-22 23:00:00 10.9 17 Noroeste 40 Noroeste 0 -- -- 97
2019-04-22 22:00:00 10.9 21 Noroeste 42 Noroeste 0 -- -- 97
2019-04-22 21:00:00 10.9 14 Noroeste 40 Noroeste 0 -- -- 96
2019-04-22 20:00:00 11.4 21 Noroeste 46 Noroeste 0 -- -- 95
2019-04-22 19:00:00 11.8 19 Noroeste 42 Noroeste 0 -- -- 93
2019-04-22 18:00:00 12.8 21 Noroeste 37 Noroeste 0 -- -- 89
2019-04-22 17:00:00 16.5 13 Noroeste 26 Noroeste 0 -- -- 73
2019-04-22 16:00:00 18.3 8 Noroeste 28 Noroeste 0 -- -- 62
2019-04-22 15:00:00 17.5 9 Oeste 31 Oeste 0 -- -- 70
2019-04-22 14:00:00 16.5 13 Noroeste 31 Noroeste 0 -- -- 74
2019-04-22 13:00:00 16 16 Noroeste 31 Noroeste 0 -- -- 75
2019-04-22 12:00:00 17.2 9 Noroeste 21 Noroeste 0 -- -- 69
2019-04-22 11:00:00 15 10 Noroeste 36 Norte 0 -- -- 72
2019-04-22 10:00:00 11.4 26 Noroeste 40 Noroeste 0 -- -- 94
2019-04-22 09:00:00 10.6 26 Noroeste 42 Noroeste 0 -- -- 98
2019-04-22 08:00:00 10 30 Noroeste 44 Noroeste 0 -- -- 99
2019-04-22 07:00:00 10.1 26 Noroeste 43 Noroeste 0 -- -- 98
2019-04-22 06:00:00 10.3 28 Noroeste 49 Noroeste 0 -- -- 98
2019-04-22 05:00:00 10.5 37 Noroeste 50 Noroeste 0 -- -- 98
2019-04-22 04:00:00 10.8 31 Noroeste 54 Noroeste 0 -- -- 98
2019-04-22 03:00:00 11 39 Noroeste 54 Noroeste 0 -- -- 98
2019-04-22 02:00:00 11.1 37 Noroeste 53 Noroeste 0 -- -- 98
2019-04-22 01:00:00 10.8 41 Noroeste 51 Noroeste 0 -- -- 98
2019-04-22 00:00:00 10.9 38 Noroeste 53 Noroeste 0 -- -- 98
2019-04-21 23:00:00 11.2 36 Noroeste 53 Noroeste 0 -- -- 98
2019-04-21 22:00:00 11.1 37 Noroeste 54 Noroeste 0 -- -- 97
2019-04-21 21:00:00 11 36 Noroeste 55 Noroeste 0 -- -- 97
2019-04-21 20:00:00 11.3 33 Noroeste 48 Noroeste 0 -- -- 96
2019-04-21 19:00:00 11.8 27 Noroeste 41 Noroeste 0 -- -- 95
2019-04-21 18:00:00 12.2 19 Noroeste 39 Noroeste 0 -- -- 92
2019-04-21 17:00:00 12.1 25 Noroeste 44 Noroeste 0 -- -- 93
2019-04-21 16:00:00 13.7 26 Noroeste 46 Noroeste 0 -- -- 83
2019-04-21 15:00:00 14.4 27 Noroeste 49 Noroeste 0 -- -- 74
2019-04-21 14:00:00 14.1 20 Noroeste 48 Noroeste 0 -- -- 77
2019-04-21 13:00:00 13.2 27 Noroeste 54 Noroeste 0 -- -- 77
2019-04-21 12:00:00 11.5 27 Noroeste 48 Noroeste 0 -- -- 89
2019-04-21 11:00:00 11.1 19 Noroeste 42 Noroeste 0 -- -- 93
2019-04-21 10:00:00 10.5 15 Noroeste 44 Noroeste 0 -- -- 94
2019-04-21 09:00:00 10.2 19 Noroeste 42 Noroeste 0 -- -- 95
2019-04-21 08:00:00 10 14 Noroeste 39 Oeste 0 -- -- 96
2019-04-21 07:00:00 9.9 18 Noroeste 43 Noroeste 0 -- -- 96
2019-04-21 06:00:00 9.9 17 Noroeste 47 Noroeste 0 -- -- 96
2019-04-21 05:00:00 10 14 Noroeste 44 Noroeste 0 -- -- 96
2019-04-21 04:00:00 10.3 13 Noroeste 41 Noroeste 0.2 -- -- 96
2019-04-21 03:00:00 10.4 8 Norte 37 Noroeste 0.4 -- -- 95
2019-04-21 02:00:00 10.3 10 Noroeste 32 Norte 0 -- -- 95
2019-04-21 01:00:00 10.4 7 Sudoeste 38 Noroeste 0 -- -- 96
2019-04-21 00:00:00 10.5 15 Norte 44 Norte 0 -- -- 96
2019-04-20 23:00:00 10.3 19 Noroeste 44 Noroeste 0 -- -- 96
2019-04-20 22:00:00 10.2 14 Norte 40 Noroeste 0 -- -- 96
2019-04-20 21:00:00 10.2 9 Noroeste 37 Noroeste 0.2 -- -- 97
2019-04-20 20:00:00 10.3 10 Norte 46 Oeste 0 -- -- 95
2019-04-20 19:00:00 10.3 14 Noroeste 38 Oeste 0 -- -- 94
2019-04-20 18:00:00 10.9 12 Noroeste 42 Noroeste 0 -- -- 90
2019-04-20 17:00:00 11.5 13 Norte 43 Noroeste 0 -- -- 87
2019-04-20 16:00:00 13.7 15 Noroeste 35 Oeste 0 -- -- 77
2019-04-20 15:00:00 14.4 8 Sur 39 Noroeste -- -- -- 77
2019-04-20 14:00:00 11.9 8 Oeste 33 Norte 0 -- -- 83
2019-04-20 13:00:00 11.5 14 Noroeste 39 Noroeste 0 -- -- 84
2019-04-20 12:00:00 10 16 Norte 34 Noroeste 0.2 -- -- 88
2019-04-20 11:00:00 10.1 15 Noroeste 37 Noroeste 0 -- -- 92
2019-04-20 10:00:00 9.3 17 Noroeste 42 Noroeste 0 -- -- 92
2019-04-20 09:00:00 9.5 22 Noroeste 44 Noroeste 0 -- -- 93
2019-04-20 08:00:00 9 16 Norte 43 Noroeste 0 -- -- 88
2019-04-20 07:00:00 9.2 20 Noroeste 54 Noroeste 0 -- -- 94
2019-04-20 06:00:00 9.3 21 Noroeste 48 Noroeste 0 -- -- 94
2019-04-20 05:00:00 9.2 18 Noroeste 55 Noroeste 0 -- -- 93
2019-04-20 04:00:00 9.3 19 Noroeste 53 Noroeste 0 -- -- 93
2019-04-20 03:00:00 9.5 22 Noroeste 54 Noroeste 0 -- -- 94
2019-04-20 02:00:00 9.4 27 Noroeste 60 Noroeste 0 -- -- 92
2019-04-20 01:00:00 9.4 35 Noroeste 63 Noroeste 0 -- -- 91
2019-04-20 00:00:00 9.2 36 Noroeste 61 Noroeste 0 -- -- 91
2019-04-19 23:00:00 9.2 35 Noroeste 60 Noroeste 0 -- -- 90
2019-04-19 22:00:00 9.2 36 Noroeste 66 Noroeste 0 -- -- 93
2019-04-19 21:00:00 9.6 39 Noroeste 66 Noroeste 0 -- -- 95
2019-04-19 20:00:00 9.7 36 Noroeste 64 Norte 0 -- -- 92
2019-04-19 19:00:00 10.1 35 Noroeste 59 Noroeste 0 -- -- 89
2019-04-19 18:00:00 10.4 33 Noroeste 65 Noroeste 0 -- -- 87
2019-04-19 17:00:00 11.6 31 Noroeste 52 Noroeste 0 -- -- 80
2019-04-19 16:00:00 11.5 25 Noroeste 54 Noroeste 0 -- -- 81
2019-04-19 15:00:00 11.7 30 Noroeste 55 Noroeste 0 -- -- 79
2019-04-19 14:00:00 11.7 35 Noroeste 63 Noroeste 0 -- -- 78
2019-04-19 13:00:00 11.3 35 Noroeste 63 Noroeste 0 -- -- 79
2019-04-19 12:00:00 10.9 27 Noroeste 51 Noroeste 0 -- -- 84
2019-04-19 11:00:00 9.8 25 Noroeste 53 Noroeste 0 -- -- 89
2019-04-19 10:00:00 9.5 21 Noroeste 54 Noroeste 0 -- -- 90
2019-04-19 09:00:00 9.3 23 Noroeste 60 Noroeste 0 -- -- 92
2019-04-19 08:00:00 9.1 30 Noroeste 60 Noroeste 0 -- -- 93
2019-04-19 07:00:00 9 24 Noroeste 59 Noroeste 0 -- -- 91
2019-04-19 06:00:00 9.3 27 Noroeste 61 Noroeste 0 -- -- 95
2019-04-19 05:00:00 9.2 29 Noroeste 61 Noroeste 0 -- -- 93
2019-04-19 04:00:00 9.1 30 Noroeste 71 Oeste 0 -- -- 93
2019-04-19 03:00:00 9.2 26 Noroeste 67 Noroeste 0 -- -- 96
2019-04-19 02:00:00 9.7 19 Noroeste 48 Noroeste 0.2 -- -- 97
2019-04-19 01:00:00 9.8 19 Noroeste 48 Noroeste 0 -- -- 96
2019-04-19 00:00:00 9.8 13 Noroeste 46 Noroeste 0 -- -- 95
2019-04-18 23:00:00 9.8 13 Noroeste 47 Noroeste 0 -- -- 94
2019-04-18 22:00:00 9.9 15 Noroeste 44 Oeste 0 -- -- 94
2019-04-18 21:00:00 9.9 15 Noroeste 54 Noroeste 0 -- -- 93
2019-04-18 20:00:00 10.3 13 Noroeste 42 Noroeste 0 -- -- 90
2019-04-18 19:00:00 10.5 14 Noroeste 44 Noroeste 0 -- -- 90
2019-04-18 18:00:00 11.3 12 Oeste 46 Noroeste 0 -- -- 87
2019-04-18 17:00:00 12.3 13 Noroeste 41 Noroeste 0 -- -- 82
2019-04-18 16:00:00 11.7 13 Noroeste 44 Noroeste 0 -- -- 86
2019-04-18 15:00:00 11.8 15 Noroeste 48 Oeste 0 -- -- 85
2019-04-18 14:00:00 11.5 18 Noroeste 46 Noroeste 0 -- -- 86
2019-04-18 13:00:00 11.2 14 Noroeste 45 Noroeste 0 -- -- 89
2019-04-18 12:00:00 10.5 18 Noroeste 49 Noroeste 0 -- -- 91
2019-04-18 11:00:00 10.2 18 Noroeste 46 Noroeste 0 -- -- 93
2019-04-18 10:00:00 9.8 18 Norte 40 Noroeste 0 -- -- 93
2019-04-18 09:00:00 9.6 14 Noroeste 49 Noroeste 0 -- -- 96
2019-04-18 08:00:00 9.4 15 Noroeste 40 Noroeste 0 -- -- 96
2019-04-18 07:00:00 9.6 14 Noroeste 41 Noroeste 0 -- -- 97
2019-04-18 06:00:00 9.6 14 Norte 42 Noroeste 0 -- -- 97
2019-04-18 05:00:00 9.6 16 Noroeste 43 Oeste 0 -- -- 96
2019-04-18 04:00:00 9.7 14 Norte 42 Noroeste 0 -- -- 97
2019-04-18 03:00:00 9.8 15 Noroeste 39 Noroeste 0 -- -- 97
2019-04-18 02:00:00 10 18 Noroeste 41 Noroeste 0.2 -- -- 98
2019-04-18 01:00:00 10.3 9 Noroeste 39 Noroeste 1 -- -- 97
2019-04-18 00:00:00 10.3 17 Noroeste 46 Noroeste 0 -- -- 98
2019-04-17 23:00:00 10.5 11 Noroeste 37 Noroeste 0 -- -- 98
2019-04-17 22:00:00 10.4 19 Noroeste 41 Noroeste 0 -- -- 97
2019-04-17 21:00:00 10.6 15 Norte 38 Noroeste 0 -- -- 97
2019-04-17 20:00:00 10.8 19 Noroeste 33 Oeste 0 -- -- 97
2019-04-17 19:00:00 10.8 14 Noroeste 38 Noroeste 0 -- -- 97
2019-04-17 18:00:00 11.1 15 Noroeste 31 Noroeste 2 -- -- 97
2019-04-17 17:00:00 11.9 11 Noroeste 31 Noroeste 0.8 -- -- 96
2019-04-17 16:00:00 11.2 14 Noroeste 31 Noroeste 0.8 -- -- 96
2019-04-17 15:00:00 11.9 10 Noroeste 24 Noroeste 0.4 -- -- 96
2019-04-17 14:00:00 11.8 -- -- -- -- 1 -- -- 96
2019-04-17 13:00:00 12.3 11 Noroeste 20 Noroeste 0.6 -- -- 95
2019-04-17 12:00:00 13.5 3 Oeste 20 Noroeste 0.2 -- -- 89
2019-04-17 11:00:00 14.9 6 Noroeste 19 Oeste 0 -- -- 75
2019-04-17 10:00:00 13.8 6 Oeste 23 Noroeste 0 -- -- 83
2019-04-17 09:00:00 11.8 8 Noroeste 27 Noroeste 0 -- -- 89
2019-04-17 08:00:00 10.5 12 Noroeste 27 Oeste 0 -- -- 92
2019-04-17 07:00:00 10 9 Oeste 26 Oeste 0 -- -- 91
2019-04-17 06:00:00 9.7 9 Noroeste 25 Oeste 0 -- -- 95
2019-04-17 05:00:00 9.7 9 Noroeste 23 Noroeste 0 -- -- 96
2019-04-17 04:00:00 10.3 13 Noroeste 36 Noroeste 0 -- -- 97
2019-04-17 03:00:00 10.5 22 Noroeste 41 Noroeste 0 -- -- 97
2019-04-17 02:00:00 10.5 14 Noroeste 38 Oeste 0 -- -- 97
2019-04-17 01:00:00 11 17 Noroeste 36 Noroeste 0 -- -- 97
2019-04-17 00:00:00 11.1 14 Noroeste 43 Noroeste 0 -- -- 97
2019-04-16 23:00:00 11 26 Noroeste 42 Noroeste 0.2 -- -- 97
2019-04-16 22:00:00 11.4 22 Noroeste 35 Noroeste 0.4 -- -- 96
2019-04-16 21:00:00 12.3 10 Noroeste 30 Noroeste 0.2 -- -- 96
2019-04-16 20:00:00 12.5 11 Noroeste 27 Noroeste 0 -- -- 94
2019-04-16 19:00:00 13.7 9 Noroeste 20 Noroeste 0 -- -- 85
2019-04-16 18:00:00 16.6 6 Sudoeste 19 Oeste 0 -- -- 74
2019-04-16 17:00:00 16.2 6 Oeste 20 Noroeste 0 -- -- 77
2019-04-16 16:00:00 16.6 8 Oeste 22 Noroeste 0 -- -- 75
2019-04-16 15:00:00 18.2 6 Sudeste 17 Sudeste 0 -- -- 75
2019-04-16 14:00:00 16.5 4 Sudoeste 16 Sudoeste 0 -- -- 79
2019-04-16 13:00:00 16.5 6 Sudeste 13 Sur 0 -- -- 84
2019-04-16 12:00:00 15.4 8 Sur 15 Sur 0 -- -- 86
2019-04-16 11:00:00 16 9 Sudeste 16 Sur 0 -- -- 83
2019-04-16 10:00:00 14.6 6 Sudeste 10 Norte 0 -- -- 84
2019-04-16 09:00:00 11.8 5 Noroeste 21 Noroeste 0 -- -- 94
2019-04-16 08:00:00 10.9 3 Oeste 12 Este 0 -- -- 95
2019-04-16 07:00:00 10.9 2 Oeste 7 Noroeste 0 -- -- 95
2019-04-16 06:00:00 11.3 4 Noroeste 8 Noroeste 0 -- -- 95
2019-04-16 05:00:00 11.4 0 Calma 12 Nordeste 0 -- -- 96
2019-04-16 04:00:00 11.4 4 Nordeste 15 Nordeste 0 -- -- 96
2019-04-16 03:00:00 11.8 5 Norte 12 Nordeste 0 -- -- 96
2019-04-16 02:00:00 11.5 4 Nordeste 12 Nordeste 0 -- -- 96
2019-04-16 01:00:00 11.4 3 Este 14 Nordeste 0 -- -- 96
2019-04-16 00:00:00 10.3 0 Calma 9 Este 0 -- -- 94
2019-04-15 23:00:00 10.7 4 Este 8 Este 0 -- -- 93
2019-04-15 22:00:00 11.2 2 Nordeste 9 Noroeste 0 -- -- 92
2019-04-15 21:00:00 12.3 4 Noroeste 8 Norte 0 -- -- 90
2019-04-15 20:00:00 14.2 2 Este 14 Noroeste 0 -- -- 84
2019-04-15 19:00:00 16 3 Nordeste 14 Sur 0 -- -- 80
2019-04-15 18:00:00 16.2 3 Oeste 17 Noroeste 0 -- -- 79
2019-04-15 17:00:00 17.6 6 Sur 10 Sudeste 0 -- -- 78
2019-04-15 16:00:00 19 4 Oeste 22 Sudeste 0 -- -- 66
2019-04-15 15:00:00 21.8 13 Sudeste 25 Este 0 -- -- 62
2019-04-15 14:00:00 19.2 -- -- -- -- 0 -- -- 63
2019-04-15 13:00:00 17.5 12 Este 27 Sudeste 0 -- -- 69
2019-04-15 12:00:00 15.8 8 Norte 26 Norte 0 -- -- 78
2019-04-15 11:00:00 13.8 14 Norte 31 Norte 0 -- -- 84
2019-04-15 10:00:00 13.3 13 Norte 34 Norte 0 -- -- 84
2019-04-15 09:00:00 11.9 22 Noroeste 39 Noroeste 0 -- -- 87
2019-04-15 08:00:00 10.5 28 Noroeste 50 Noroeste 0 -- -- 95
2019-04-15 07:00:00 10.5 33 Noroeste 50 Noroeste 0 -- -- 97
2019-04-15 06:00:00 10.3 33 Noroeste 45 Noroeste 0 -- -- 96
2019-04-15 05:00:00 10.8 32 Noroeste 48 Noroeste 0 -- -- 96
2019-04-15 04:00:00 10.5 37 Noroeste 54 Noroeste 0 -- -- 95
2019-04-15 03:00:00 10.6 37 Noroeste 55 Noroeste 0 -- -- 94
2019-04-15 02:00:00 10.8 31 Noroeste 49 Noroeste 0 -- -- 95
2019-04-15 01:00:00 11 33 Noroeste 52 Noroeste 0 -- -- 94
2019-04-15 00:00:00 10.9 27 Noroeste 46 Noroeste 0 -- -- 88
2019-04-14 23:00:00 12.3 17 Noroeste 36 Noroeste 0 -- -- 67
2019-04-14 22:00:00 12.2 25 Noroeste 48 Noroeste 0 -- -- 56
2019-04-14 21:00:00 11.4 34 Noroeste 49 Noroeste 0 -- -- 91
2019-04-14 20:00:00 14.5 19 Noroeste 32 Noroeste 0 -- -- 48
2019-04-14 19:00:00 16.1 16 Noroeste 34 Norte 0 -- -- 45
2019-04-14 18:00:00 16.9 13 Noroeste 31 Noroeste 0 -- -- 64
2019-04-14 17:00:00 18.4 15 Noroeste 35 Oeste 0 -- -- 39
2019-04-14 16:00:00 18.4 8 Oeste 28 Noroeste 0 -- -- 61
2019-04-14 15:00:00 19.1 15 Noroeste 25 Noroeste 0 -- -- 46
2019-04-14 14:00:00 20.9 5 Noroeste 15 Sur 0 -- -- 53
2019-04-14 13:00:00 21.7 7 Sudeste 15 Sur -- -- -- 57
2019-04-14 12:00:00 20.9 7 Sudeste 14 Sudeste 0 -- -- 49
2019-04-14 11:00:00 18.9 8 Sudeste 14 Sudeste 0 -- -- 41
2019-04-14 10:00:00 16.2 9 Sudeste 15 Sudeste 0 -- -- 52
2019-04-14 09:00:00 12.3 10 Sudeste 23 Este 0 -- -- 67
2019-04-14 08:00:00 9.8 19 Este 30 Este 0 -- -- 60
2019-04-14 07:00:00 8.1 9 Este 12 Este 0 -- -- 88
2019-04-14 06:00:00 8.5 4 Este 18 Este 0 -- -- 83
2019-04-14 05:00:00 9.6 5 Noroeste 21 Este 0 -- -- 78
2019-04-14 04:00:00 9.8 13 Noroeste 39 Norte 0 -- -- 93
2019-04-14 03:00:00 10 22 Norte 43 Norte 0 -- -- 94
2019-04-14 02:00:00 10.4 8 Norte 23 Norte 0 -- -- 84
2019-04-14 01:00:00 10.1 20 Norte 32 Norte 0 -- -- 91
2019-04-14 00:00:00 10.9 13 Norte 22 Norte 0 -- -- 82
2019-04-13 23:00:00 9.5 7 Nordeste 16 Este 0 -- -- 62
2019-04-13 22:00:00 9.6 4 Este 15 Sudeste 0 -- -- 77
2019-04-13 21:00:00 10.8 3 Nordeste 16 Norte 0 -- -- 68
2019-04-13 20:00:00 13.2 3 Norte 15 Norte 0 -- -- 77
2019-04-13 19:00:00 16.4 5 Nordeste 13 Norte 0 -- -- 61
2019-04-13 18:00:00 16.7 7 Nordeste 19 Nordeste 0 -- -- 63
2019-04-13 17:00:00 17.9 7 Noroeste 17 Este 0 -- -- 44
2019-04-13 16:00:00 17.8 4 Sur 17 Este 0 -- -- 58
2019-04-13 15:00:00 17.9 7 Sudeste 23 Este 0 -- -- 68
2019-04-13 14:00:00 16.7 7 Este 28 Este 0 -- -- 66
2019-04-13 13:00:00 15.3 9 Este 31 Nordeste 0 -- -- 73
2019-04-13 12:00:00 14.2 10 Nordeste 34 Nordeste 0 -- -- 76
2019-04-13 11:00:00 12.8 17 Norte 36 Nordeste 0 -- -- 81
2019-04-13 10:00:00 11.4 17 Norte 36 Este 0 -- -- 90
2019-04-13 09:00:00 10.5 7 Oeste 38 Nordeste 0 -- -- 93
2019-04-13 08:00:00 9.9 16 Norte 49 Nordeste 0 -- -- 96
2019-04-13 07:00:00 9.7 24 Norte 49 Nordeste 0 -- -- 96
2019-04-13 06:00:00 9.8 10 Norte 32 Noroeste 0 -- -- 97
2019-04-13 05:00:00 9.8 10 Noroeste 31 Norte 0 -- -- 97
2019-04-13 04:00:00 10.1 8 Noroeste 37 Noroeste 0 -- -- 97
2019-04-13 03:00:00 9.9 9 Noroeste 32 Noroeste 0 -- -- 96
2019-04-13 02:00:00 10.1 8 Noroeste 29 Oeste 0 -- -- 96
2019-04-13 01:00:00 9.7 9 Oeste 39 Oeste 0 -- -- 95
2019-04-13 00:00:00 9.7 14 Noroeste 42 Noroeste 0 -- -- 96
2019-04-12 23:00:00 9.5 18 Noroeste 48 Noroeste 0 -- -- 95
2019-04-12 22:00:00 9.5 24 Noroeste 50 Norte 0 -- -- 94
2019-04-12 21:00:00 9.5 27 Noroeste 52 Oeste 0 -- -- 93
2019-04-12 20:00:00 9.7 29 Noroeste 58 Noroeste 0 -- -- 92
2019-04-12 19:00:00 10.5 31 Noroeste 56 Noroeste 0 -- -- 87
2019-04-12 18:00:00 11.7 23 Noroeste 45 Noroeste 0 -- -- 82
2019-04-12 17:00:00 12.2 13 Noroeste 40 Noroeste 0 -- -- 81
2019-04-12 16:00:00 13 11 Noroeste 29 Oeste 0 -- -- 77
2019-04-12 15:00:00 13.7 7 Noroeste 29 Norte 0 -- -- 75
2019-04-12 14:00:00 -- -- -- -- -- -- -- -- --
2019-04-12 13:00:00 11.8 -- -- -- -- 0 -- -- 84
2019-04-12 12:00:00 12 16 Noroeste 35 Noroeste 0 -- -- 82
2019-04-12 11:00:00 11.6 11 Noroeste 30 Oeste 0 -- -- 82
2019-04-12 10:00:00 10 10 Noroeste 40 Noroeste 0 -- -- 89
2019-04-12 09:00:00 9.4 7 Noroeste 31 Noroeste 0 -- -- 93
2019-04-12 08:00:00 8.8 8 Noroeste 36 Oeste 0 -- -- 89
2019-04-12 07:00:00 9.4 11 Noroeste 46 Norte 0 -- -- 96
2019-04-12 06:00:00 9.3 9 Oeste 41 Noroeste 0 -- -- 96
2019-04-12 05:00:00 9.1 13 Noroeste 39 Norte 0.2 -- -- 95
2019-04-12 04:00:00 9.2 13 Noroeste 41 Noroeste 0 -- -- 96
2019-04-12 03:00:00 9.3 13 Noroeste 39 Noroeste 0 -- -- 94
2019-04-12 02:00:00 9.2 11 Noroeste 40 Noroeste 0 -- -- 91
2019-04-12 01:00:00 9.4 19 Noroeste 44 Noroeste 0 -- -- 94
2019-04-12 00:00:00 9.4 18 Noroeste 45 Norte 0 -- -- 93
2019-04-11 23:00:00 9.5 18 Noroeste 50 Noroeste 0 -- -- 92
2019-04-11 22:00:00 9.7 15 Noroeste 62 Noroeste 0 -- -- 95
2019-04-11 21:00:00 9.6 25 Noroeste 51 Noroeste 0 -- -- 91
2019-04-11 20:00:00 9.7 14 Noroeste 51 Noroeste 0 -- -- 90
2019-04-11 19:00:00 10.2 22 Noroeste 51 Noroeste 0 -- -- 87
2019-04-11 18:00:00 10.8 23 Noroeste 51 Noroeste 0 -- -- 87
2019-04-11 17:00:00 11.5 17 Noroeste 42 Oeste 0 -- -- 85
2019-04-11 16:00:00 12.1 9 Noroeste 45 Noroeste 0 -- -- 83
2019-04-11 15:00:00 13.7 11 Oeste 41 Norte 0 -- -- 72
2019-04-11 14:00:00 12 14 Norte 41 Noroeste 0 -- -- 79
2019-04-11 13:00:00 11.2 14 Noroeste 39 Noroeste 0 -- -- 87
2019-04-11 12:00:00 12 10 Noroeste 38 Oeste 0 -- -- 81
2019-04-11 11:00:00 10.8 12 Noroeste 44 Noroeste 0 -- -- 82
2019-04-11 10:00:00 9.7 11 Oeste 32 Noroeste 0 -- -- 90
2019-04-11 09:00:00 9.1 9 Noroeste 36 Noroeste 0 -- -- 87
2019-04-11 08:00:00 8.9 13 Noroeste 39 Noroeste 0 -- -- 91
2019-04-11 07:00:00 9 10 Noroeste 37 Oeste 0 -- -- 91
2019-04-11 06:00:00 9.1 7 Noroeste 40 Oeste 0 -- -- 92
2019-04-11 05:00:00 9.4 13 Noroeste 47 Noroeste 0 -- -- 95
2019-04-11 04:00:00 8.9 18 Noroeste 38 Norte 0 -- -- 91
2019-04-11 03:00:00 9 15 Norte 47 Norte 0 -- -- 90
2019-04-11 02:00:00 9.2 10 Noroeste 42 Noroeste 0 -- -- 90
2019-04-11 01:00:00 9.3 13 Norte 40 Noroeste 0 -- -- 91
2019-04-11 00:00:00 9.1 14 Noroeste 38 Nordeste 0 -- -- 91
2019-04-10 23:00:00 9.6 13 Norte 45 Noroeste 0 -- -- 94
2019-04-10 22:00:00 9.3 16 Noroeste 46 Noroeste 0 -- -- 92
2019-04-10 21:00:00 9.5 14 Noroeste 46 Noroeste 0 -- -- 91
2019-04-10 20:00:00 9.9 21 Noroeste 46 Oeste 0 -- -- 90
2019-04-10 19:00:00 10.3 14 Noroeste 38 Noroeste 0 -- -- 89
2019-04-10 18:00:00 10.6 14 Noroeste 40 Noroeste 0 -- -- 89
2019-04-10 17:00:00 12.1 15 Noroeste 39 Oeste 0 -- -- 79
2019-04-10 16:00:00 12.3 14 Noroeste 41 Noroeste 0 -- -- 82
2019-04-10 15:00:00 13.3 14 Oeste 51 Noroeste 0 -- -- 77
2019-04-10 14:00:00 13.5 11 Sudoeste 41 Noroeste 0 -- -- 74
2019-04-10 13:00:00 12.8 14 Noroeste 39 Nordeste -- -- -- 74
2019-04-10 12:00:00 11.8 15 Noroeste 33 Norte 0 -- -- 80
2019-04-10 11:00:00 9.8 10 Noroeste 29 Noroeste 0 -- -- 90
2019-04-10 10:00:00 9 8 Noroeste 33 Noroeste 0 -- -- 94
2019-04-10 09:00:00 9 8 Noroeste 27 Noroeste 0 -- -- 97
2019-04-10 08:00:00 9.3 9 Noroeste 26 Noroeste 0.4 -- -- 97
2019-04-10 07:00:00 9.2 12 Oeste 37 Oeste 0 -- -- 96
2019-04-10 06:00:00 8.7 13 Noroeste 32 Noroeste 0 -- -- 93
2019-04-10 05:00:00 9.2 9 Noroeste 31 Nordeste 0 -- -- 93
2019-04-10 04:00:00 8.8 12 Norte 45 Noroeste 0 -- -- 92
2019-04-10 03:00:00 9 -- -- -- -- 0 -- -- 92
2019-04-10 02:00:00 9.3 10 Noroeste 38 Noroeste 0 -- -- 95
2019-04-10 01:00:00 9.6 8 Norte 30 Oeste 0 -- -- 95
2019-04-10 00:00:00 9.6 9 Noroeste 42 Oeste 0 -- -- 96
2019-04-09 23:00:00 9.5 10 Noroeste 38 Noroeste 0 -- -- 95
2019-04-09 22:00:00 9.5 15 Noroeste 37 Oeste 0 -- -- 96
2019-04-09 21:00:00 9.5 21 Noroeste 42 Noroeste 0 -- -- 95
2019-04-09 20:00:00 10 23 Norte 41 Norte 0 -- -- 95
2019-04-09 19:00:00 10.8 20 Norte 44 Norte 0 -- -- 94
2019-04-09 18:00:00 11.4 19 Norte 33 Norte 0 -- -- 93
2019-04-09 17:00:00 12.5 14 Norte 31 Este 0 -- -- 87
2019-04-09 16:00:00 13.3 10 Norte 24 Norte 0 -- -- 84
2019-04-09 15:00:00 13.1 8 Nordeste 25 Nordeste 0 -- -- 90
2019-04-09 14:00:00 12 11 Nordeste 32 Este 0.4 -- -- 91
2019-04-09 13:00:00 12.1 6 Nordeste 28 Este 0.6 -- -- 94
2019-04-09 12:00:00 12.1 9 Nordeste 22 Este 1 -- -- 96
2019-04-09 11:00:00 12.1 3 Noroeste 14 Oeste 0 -- -- 94
2019-04-09 10:00:00 11.8 4 Sur 15 Noroeste 0 -- -- 91
2019-04-09 09:00:00 10.8 3 Este 15 Nordeste 0 -- -- 96
2019-04-09 08:00:00 10.5 4 Sudeste 19 Este 0 -- -- 97
2019-04-09 07:00:00 10.3 8 Norte 24 Norte 0 -- -- 97
2019-04-09 06:00:00 9.9 14 Norte 33 Norte 0 -- -- 96
2019-04-09 05:00:00 9.6 19 Norte 34 Norte 0 -- -- 97
2019-04-09 04:00:00 9.7 25 Noroeste 34 Noroeste 0 -- -- 97
2019-04-09 03:00:00 9.6 25 Norte 36 Norte 0 -- -- 95
2019-04-09 02:00:00 9.3 21 Norte 30 Norte 0 -- -- 93
2019-04-09 01:00:00 9.1 21 Norte 35 Norte 0 -- -- 92
2019-04-09 00:00:00 9.3 25 Noroeste 36 Norte 0 -- -- 94
2019-04-08 23:00:00 9.3 27 Noroeste 41 Noroeste 0 -- -- 93
2019-04-08 22:00:00 9.5 30 Noroeste 43 Noroeste 0 -- -- 90
2019-04-08 21:00:00 9.5 27 Noroeste 40 Noroeste 0 -- -- 91
2019-04-08 20:00:00 9.9 23 Noroeste 37 Noroeste 0 -- -- 89
2019-04-08 19:00:00 11.4 14 Noroeste 35 Noroeste 0 -- -- 83
2019-04-08 18:00:00 12.8 10 Noroeste 35 Noroeste 0 -- -- 78
2019-04-08 17:00:00 12.8 11 Noroeste 23 Noroeste 0 -- -- 82
2019-04-08 16:00:00 13.4 9 Noroeste 26 Noroeste 0 -- -- 80
2019-04-08 15:00:00 14.2 4 Oeste 21 Sudoeste 0 -- -- 84
2019-04-08 14:00:00 13.2 6 Noroeste 20 Noroeste 0 -- -- 85
2019-04-08 13:00:00 12.6 8 Oeste 20 Noroeste 0 -- -- 93
2019-04-08 12:00:00 11 6 Sudoeste 28 Noroeste 0 -- -- 98
2019-04-08 11:00:00 10.1 8 Noroeste 29 Noroeste 1 -- -- 98
2019-04-08 10:00:00 9.8 12 Noroeste 24 Noroeste 0.8 -- -- 98
2019-04-08 09:00:00 9.7 11 Noroeste 21 Noroeste 0.6 -- -- 98
2019-04-08 08:00:00 9.4 10 Noroeste 26 Noroeste 0 -- -- 98
2019-04-08 07:00:00 8.9 20 Noroeste 33 Noroeste 0.4 -- -- 98
2019-04-08 06:00:00 9.7 13 Noroeste 27 Norte 0.8 -- -- 98
2019-04-08 05:00:00 10.2 10 Noroeste 27 Noroeste 0.8 -- -- 98
2019-04-08 04:00:00 10.2 12 Noroeste 25 Noroeste 0.8 -- -- 98
2019-04-08 03:00:00 10 12 Noroeste 26 Oeste 0 -- -- 97
2019-04-08 02:00:00 9.9 6 Noroeste 26 Noroeste 0 -- -- 96
2019-04-08 01:00:00 9.9 15 Noroeste 27 Noroeste 0 -- -- 96
2019-04-08 00:00:00 10.2 5 Noroeste 24 Noroeste 0 -- -- 96
2019-04-07 23:00:00 10.3 6 Noroeste 21 Noroeste 0 -- -- 96
2019-04-07 22:00:00 10.2 6 Noroeste 19 Norte 0 -- -- 95
2019-04-07 21:00:00 10.3 11 Noroeste 20 Noroeste 0 -- -- 94
2019-04-07 20:00:00 10.6 15 Noroeste 21 Noroeste 0 -- -- 89
2019-04-07 19:00:00 13.4 10 Noroeste 22 Noroeste 0 -- -- 78
2019-04-07 18:00:00 14.4 9 Noroeste 20 Oeste 0 -- -- 77
2019-04-07 17:00:00 14.1 8 Noroeste 18 Noroeste 0 -- -- 77
2019-04-07 16:00:00 14.5 6 Oeste 14 Noroeste 0 -- -- 76
2019-04-07 15:00:00 13.5 5 Oeste 15 Oeste 0 -- -- 80
2019-04-07 14:00:00 14 4 Este 18 Oeste 0 -- -- 77
2019-04-07 13:00:00 14.1 6 Norte 15 Noroeste 0 -- -- 73
2019-04-07 12:00:00 13.2 8 Noroeste 24 Noroeste 0 -- -- 78
2019-04-07 11:00:00 13.6 8 Oeste 15 Sur 0 -- -- 77
2019-04-07 10:00:00 11.1 6 Noroeste 26 Noroeste 0 -- -- 90
2019-04-07 09:00:00 9.5 19 Noroeste 28 Noroeste 0 -- -- 97
2019-04-07 08:00:00 8.8 20 Noroeste 30 Noroeste 0 -- -- 98
2019-04-07 07:00:00 8.8 19 Noroeste 28 Noroeste 0 -- -- 97
2019-04-07 06:00:00 8.6 18 Noroeste 27 Norte 0 -- -- 97
2019-04-07 05:00:00 8.5 17 Norte 24 Norte 0 -- -- 96
2019-04-07 04:00:00 8.7 16 Norte 30 Norte 0 -- -- 96
2019-04-07 03:00:00 8.9 19 Norte 31 Norte 0 -- -- 96
2019-04-07 02:00:00 8.9 23 Noroeste 33 Noroeste 0 -- -- 97
2019-04-07 01:00:00 8.9 24 Noroeste 41 Noroeste 0 -- -- 96
2019-04-07 00:00:00 8.9 28 Noroeste 43 Noroeste 0 -- -- 95
2019-04-06 23:00:00 9 29 Noroeste 44 Noroeste 0 -- -- 94
2019-04-06 22:00:00 9.2 28 Noroeste 44 Noroeste 0 -- -- 95
2019-04-06 21:00:00 9.4 24 Noroeste 46 Noroeste 0 -- -- 96
2019-04-06 20:00:00 9.3 30 Noroeste 49 Noroeste 0 -- -- 94
2019-04-06 19:00:00 9.7 29 Noroeste 49 Norte 0 -- -- 89
2019-04-06 18:00:00 10.3 32 Noroeste 49 Noroeste 0 -- -- 87
2019-04-06 17:00:00 10.6 25 Noroeste 41 Noroeste 0 -- -- 84
2019-04-06 16:00:00 10.7 20 Noroeste 39 Noroeste 0 -- -- 86
2019-04-06 15:00:00 10.8 18 Norte 46 Norte 0 -- -- 84
2019-04-06 14:00:00 11.3 14 Norte 39 Noroeste 0 -- -- 86
2019-04-06 13:00:00 10.9 16 Norte 44 Noroeste 0 -- -- 89
2019-04-06 12:00:00 9.4 17 Noroeste 42 Noroeste 0 -- -- 96
2019-04-06 11:00:00 9 22 Norte 45 Noroeste 0.4 -- -- 98
2019-04-06 10:00:00 8.3 16 Norte 47 Noroeste 1.6 -- -- 98
2019-04-06 09:00:00 8.7 10 Norte 49 Noroeste 0 -- -- 96
2019-04-06 08:00:00 8.6 19 Noroeste 49 Norte 0 -- -- 95
2019-04-06 07:00:00 8.4 17 Norte 45 Noroeste 0 -- -- 91
2019-04-06 06:00:00 8.7 22 Noroeste 45 Noroeste 0 -- -- 94
2019-04-06 05:00:00 8.7 19 Noroeste 47 Noroeste 0 -- -- 91
2019-04-06 04:00:00 8.6 13 Noroeste 50 Norte 0 -- -- 93
2019-04-06 03:00:00 8.9 18 Norte 50 Oeste 0 -- -- 96
2019-04-06 02:00:00 8.6 15 Noroeste 51 Norte 0 -- -- 96
2019-04-06 01:00:00 8.7 12 Norte 48 Noroeste 0.6 -- -- 97
2019-04-06 00:00:00 9.2 19 Noroeste 48 Noroeste 0 -- -- 96
2019-04-05 23:00:00 9 23 Norte 54 Noroeste 0 -- -- 93
2019-04-05 22:00:00 9 16 Noroeste 54 Noroeste 0 -- -- 94
2019-04-05 21:00:00 9.2 23 Norte 52 Noroeste 0.2 -- -- 97
2019-04-05 20:00:00 9.2 26 Noroeste 51 Noroeste 0 -- -- 95
2019-04-05 19:00:00 9.5 23 Noroeste 51 Noroeste 0 -- -- 97
2019-04-05 18:00:00 9.8 23 Noroeste 48 Noroeste 0.2 -- -- 97
2019-04-05 17:00:00 10 23 Noroeste 43 Noroeste 0 -- -- 98
2019-04-05 16:00:00 10.1 22 Noroeste 44 Noroeste 0.8 -- -- 96
2019-04-05 15:00:00 11.5 15 Noroeste 37 Noroeste 0 -- -- 88
2019-04-05 14:00:00 12.4 12 Noroeste 39 Noroeste 0 -- -- 85
2019-04-05 13:00:00 11.8 17 Noroeste 39 Noroeste 0 -- -- 89
2019-04-05 12:00:00 10.1 21 Noroeste 42 Noroeste 0.2 -- -- 95
2019-04-05 11:00:00 10.3 11 Noroeste 41 Noroeste 0 -- -- 94
2019-04-05 10:00:00 9.4 13 Noroeste 40 Norte 0 -- -- 98
2019-04-05 09:00:00 9 17 Noroeste 41 Oeste 0 -- -- 99
2019-04-05 08:00:00 9 18 Noroeste 36 Noroeste 0.4 -- -- 98
2019-04-05 07:00:00 8.9 18 Noroeste 37 Noroeste 0 -- -- 98
2019-04-05 06:00:00 -- -- -- -- -- -- -- -- --
2019-04-05 05:00:00 -- -- -- -- -- -- -- -- --
2019-04-05 04:00:00 -- -- -- -- -- -- -- -- --
2019-04-05 03:00:00 -- -- -- -- -- -- -- -- --
2019-04-05 02:00:00 -- -- -- -- -- -- -- -- --
2019-04-05 01:00:00 -- -- -- -- -- -- -- -- --
2019-04-05 00:00:00 -- -- -- -- -- -- -- -- --
2019-04-04 23:00:00 -- -- -- -- -- -- -- -- --
2019-04-04 22:00:00 -- -- -- -- -- -- -- -- --
2019-04-04 21:00:00 -- -- -- -- -- -- -- -- --
2019-04-04 20:00:00 -- -- -- -- -- -- -- -- --
2019-04-04 19:00:00 -- -- -- -- -- -- -- -- --
2019-04-04 18:00:00 -- -- -- -- -- -- -- -- --
2019-04-04 17:00:00 -- -- -- -- -- -- -- -- --
2019-04-04 16:00:00 -- -- -- -- -- -- -- -- --
2019-04-04 15:00:00 -- -- -- -- -- -- -- -- --
2019-04-04 14:00:00 -- -- -- -- -- -- -- -- --
2019-04-04 13:00:00 -- -- -- -- -- -- -- -- --
2019-04-04 12:00:00 -- -- -- -- -- -- -- -- --
2019-04-04 11:00:00 -- -- -- -- -- -- -- -- --
2019-04-04 10:00:00 -- -- -- -- -- -- -- -- --
2019-04-04 09:00:00 -- -- -- -- -- -- -- -- --
2019-04-04 08:00:00 -- -- -- -- -- -- -- -- --
2019-04-04 07:00:00 -- -- -- -- -- -- -- -- --
2019-04-04 06:00:00 -- -- -- -- -- -- -- -- --
2019-04-04 05:00:00 -- -- -- -- -- -- -- -- --
2019-04-04 04:00:00 -- -- -- -- -- -- -- -- --
2019-04-04 03:00:00 -- -- -- -- -- -- -- -- --
2019-04-04 02:00:00 -- -- -- -- -- -- -- -- --
2019-04-04 01:00:00 -- -- -- -- -- -- -- -- --
2019-04-04 00:00:00 -- -- -- -- -- -- -- -- --
2019-04-03 23:00:00 -- -- -- -- -- -- -- -- --
2019-04-03 22:00:00 -- -- -- -- -- -- -- -- --
2019-04-03 21:00:00 -- -- -- -- -- -- -- -- --
2019-04-03 20:00:00 -- -- -- -- -- -- -- -- --
2019-04-03 19:00:00 -- -- -- -- -- -- -- -- --
2019-04-03 18:00:00 10.8 13 Noroeste 40 Noroeste 0 -- -- 90
2019-04-03 17:00:00 11.6 13 Noroeste 41 Noroeste 0 -- -- 84
2019-04-03 16:00:00 11.8 10 Noroeste 36 Noroeste 0 -- -- 84
2019-04-03 15:00:00 12.7 15 Noroeste 37 Noroeste 0 -- -- 81
2019-04-03 14:00:00 12.8 10 Noroeste 32 Noroeste 0 -- -- 85
2019-04-03 13:00:00 11.6 12 Noroeste 30 Noroeste 0 -- -- 88
2019-04-03 12:00:00 11.4 13 Noroeste 35 Oeste 0 -- -- 92
2019-04-03 11:00:00 10.2 13 Noroeste 30 Noroeste 0.8 -- -- 96
2019-04-03 10:00:00 9.8 18 Noroeste 34 Noroeste 2.4 -- -- 96
2019-04-03 09:00:00 9.7 11 Noroeste 30 Oeste 0 -- -- 99
2019-04-03 08:00:00 9.1 13 Noroeste 30 Noroeste 0 -- -- 98
2019-04-03 07:00:00 9.3 17 Noroeste 31 Noroeste 0 -- -- 98
2019-04-03 06:00:00 9.1 19 Noroeste 30 Noroeste 0 -- -- 98
2019-04-03 05:00:00 9.5 16 Noroeste 32 Noroeste 0 -- -- 98
2019-04-03 04:00:00 9.6 18 Noroeste 27 Noroeste 0 -- -- 98
2019-04-03 03:00:00 9.7 15 Noroeste 27 Noroeste 0 -- -- 98
2019-04-03 02:00:00 9.3 22 Noroeste 30 Noroeste 0 -- -- 98
2019-04-03 01:00:00 9.5 19 Noroeste 32 Noroeste 0 -- -- 98
2019-04-03 00:00:00 9.7 23 Noroeste 30 Noroeste 0.2 -- -- 98
2019-04-02 23:00:00 10.2 21 Noroeste 31 Noroeste 0.2 -- -- 98
2019-04-02 22:00:00 10.2 24 Noroeste 35 Noroeste 0.4 -- -- 98
2019-04-02 21:00:00 10.1 24 Noroeste 35 Noroeste 0.6 -- -- 98
2019-04-02 20:00:00 10.6 18 Noroeste 29 Noroeste 1.2 -- -- 97
2019-04-02 19:00:00 11 12 Noroeste 25 Noroeste 0 -- -- 97
2019-04-02 18:00:00 11.4 6 Noroeste 13 Oeste 0.4 -- -- 96
2019-04-02 17:00:00 11.7 3 Oeste 9 Oeste 1.6 -- -- 96
2019-04-02 16:00:00 11.4 4 Sur 9 Sur 3.8 -- -- 96
2019-04-02 15:00:00 11.6 2 Sudeste 9 Sur 1 -- -- 95
2019-04-02 14:00:00 -- -- -- -- -- -- -- -- --
2019-04-02 13:00:00 -- -- -- -- -- -- -- -- --
2019-04-02 12:00:00 -- -- -- -- -- -- -- -- --
2019-04-02 11:00:00 -- -- -- -- -- -- -- -- --
2019-04-02 10:00:00 10.2 9 Sur 21 Sudeste 1.6 -- -- 98
2019-04-02 09:00:00 10.4 14 Sudeste 26 Sudeste 0.2 -- -- 98
2019-04-02 08:00:00 10.4 22 Sudeste 34 Sudeste 0 -- -- 98
2019-04-02 07:00:00 10.3 17 Sudeste 24 Sudeste 0 -- -- 98
2019-04-02 06:00:00 10.3 10 Sudeste 18 Sudeste 0 -- -- 98
2019-04-02 05:00:00 10.2 8 Sudeste 21 Sudeste 0 -- -- 98
2019-04-02 04:00:00 10.1 16 Sudeste 28 Sudeste 0.2 -- -- 98
2019-04-02 03:00:00 10.1 21 Sudeste 27 Sudeste 0.2 -- -- 98
2019-04-02 02:00:00 9.9 18 Sudeste 28 Sur 0.4 -- -- 97
2019-04-02 01:00:00 10.1 5 Sudeste 14 Este 2.2 -- -- 97
2019-04-02 00:00:00 10.1 0 Calma 5 Norte 7.4 -- -- 97
2019-04-01 23:00:00 10.2 3 Nordeste 5 Noroeste 4.6 -- -- 97
2019-04-01 22:00:00 10.5 0 Calma 6 Sur 0.8 -- -- 96
2019-04-01 21:00:00 10.5 2 Sudeste 12 Sudeste 0 -- -- 96
2019-04-01 20:00:00 10.5 6 Sudeste 8 Sur 0.2 -- -- 96
2019-04-01 19:00:00 10.8 6 Sudeste 7 Sudeste 0 -- -- 96
2019-04-01 18:00:00 10.5 3 Sur 13 Sur 0.8 -- -- 96
2019-04-01 17:00:00 10.4 3 Sur 13 Sudeste 3.4 -- -- 95
2019-04-01 16:00:00 11.6 10 Sudeste 18 Sudeste 0 -- -- 93
2019-04-01 15:00:00 12.1 8 Sur 16 Sur 0 -- -- 91
2019-04-01 14:00:00 12.8 6 Sur 16 Sur 0 -- -- 88
2019-04-01 13:00:00 14 8 Sur 15 Sudeste 0 -- -- 83
2019-04-01 12:00:00 13.2 10 Sur 15 Sur 0 -- -- 89
2019-04-01 11:00:00 14.9 9 Sudeste 17 Sudeste 0 -- -- 86
2019-04-01 10:00:00 11.1 3 Sudeste 17 Norte 0 -- -- 96
2019-04-01 09:00:00 9.8 12 Norte 19 Noroeste 0 -- -- 97
2019-04-01 08:00:00 9.5 9 Noroeste 18 Noroeste 0 -- -- 96
2019-04-01 07:00:00 9 13 Norte 21 Noroeste 0 -- -- 96
2019-04-01 06:00:00 9 13 Noroeste 26 Noroeste 0 -- -- 96
2019-04-01 05:00:00 9.2 13 Noroeste 27 Norte 0 -- -- 97
2019-04-01 04:00:00 9.5 10 Noroeste 30 Noroeste 0.6 -- -- 96
2019-04-01 03:00:00 9.9 12 Noroeste 24 Noroeste 1.2 -- -- 96
2019-04-01 02:00:00 9.9 7 Noroeste 22 Noroeste 0 -- -- 96
2019-04-01 01:00:00 9.9 10 Noroeste 27 Norte 0 -- -- 96
2019-04-01 00:00:00 10 10 Noroeste 26 Noroeste 0 -- -- 96
2019-03-31 23:00:00 10.3 12 Noroeste 27 Noroeste 0 -- -- 96
2019-03-31 22:00:00 10.4 11 Noroeste 30 Noroeste 0 -- -- 96
2019-03-31 21:00:00 10.6 10 Noroeste 20 Noroeste 0.2 -- -- 94
2019-03-31 20:00:00 10.9 6 Noroeste 20 Noroeste 0 -- -- 91
2019-03-31 19:00:00 11.3 7 Noroeste 19 Sudoeste 0 -- -- 89
2019-03-31 18:00:00 12.1 5 Noroeste 17 Noroeste 0 -- -- 85
2019-03-31 17:00:00 12.5 7 Noroeste 17 Noroeste 0 -- -- 83
2019-03-31 16:00:00 13.4 8 Noroeste 21 Sudoeste 0 -- -- 79
2019-03-31 15:00:00 12.8 5 Oeste 22 Noroeste 0.4 -- -- 87
2019-03-31 14:00:00 11.9 -- -- -- -- 0.6 -- -- 91
2019-03-31 13:00:00 13.6 6 Oeste 18 Sudoeste 0 -- -- 77
2019-03-31 12:00:00 12.9 8 Noroeste 23 Noroeste 0 -- -- 76
2019-03-31 11:00:00 13.7 9 Noroeste 26 Noroeste 0 -- -- 76
2019-03-31 10:00:00 12.4 8 Noroeste 27 Noroeste 0 -- -- 81
2019-03-31 09:00:00 9.8 8 Noroeste 21 Noroeste 0 -- -- 93
2019-03-31 08:00:00 9.1 9 Noroeste 25 Noroeste 0 -- -- 94
2019-03-31 07:00:00 9.1 11 Noroeste 28 Oeste 0 -- -- 93
2019-03-31 06:00:00 8.8 10 Noroeste 30 Oeste 0 -- -- 91
2019-03-31 05:00:00 8.7 7 Noroeste 24 Oeste 0 -- -- 94
2019-03-31 04:00:00 9 8 Noroeste 23 Noroeste 0 -- -- 95
2019-03-31 00:00:00 9.1 17 Noroeste 26 Noroeste 0 -- -- 71
2019-03-30 23:00:00 9.1 17 Noroeste 26 Noroeste 0 -- -- 71
2019-03-30 22:00:00 8.8 15 Noroeste 26 Noroeste 0 -- -- 87
2019-03-30 21:00:00 9 12 Noroeste 27 Oeste 0 -- -- 92
2019-03-30 20:00:00 9 10 Noroeste 26 Noroeste 0 -- -- 90
2019-03-30 19:00:00 10.4 10 Noroeste 23 Noroeste 0 -- -- 84
2019-03-30 18:00:00 12.5 6 Noroeste 19 Oeste 0 -- -- 72
2019-03-30 17:00:00 14.4 8 Oeste 22 Oeste 0 -- -- 62
2019-03-30 16:00:00 15.3 6 Oeste 23 Sur 0 -- -- 61
2019-03-30 15:00:00 15.1 6 Nordeste 21 Oeste 0 -- -- 60
2019-03-30 14:00:00 14.7 9 Noroeste 26 Oeste 0 -- -- 63
2019-03-30 13:00:00 -- -- -- -- -- -- -- -- --
2019-03-30 12:00:00 14.5 9 Noroeste 22 Oeste 0 -- -- 71
2019-03-30 11:00:00 13.6 12 Noroeste 25 Noroeste 0 -- -- 64
2019-03-30 10:00:00 12.5 8 Norte 19 Noroeste 0 -- -- 74
2019-03-30 09:00:00 11.4 5 Oeste 20 Noroeste 0 -- -- 83
2019-03-30 08:00:00 8.9 12 Noroeste 26 Noroeste 0 -- -- 94
2019-03-30 07:00:00 8.1 15 Noroeste 40 Noroeste 0 -- -- 95
2019-03-30 06:00:00 8.4 23 Noroeste 34 Noroeste 0.2 -- -- 94
2019-03-30 05:00:00 8.7 14 Noroeste 31 Noroeste 0 -- -- 96
2019-03-30 04:00:00 8.3 14 Noroeste 26 Norte 0 -- -- 93
2019-03-30 03:00:00 8.5 15 Noroeste 22 Noroeste 0 -- -- 83
2019-03-30 02:00:00 8.6 14 Noroeste 20 Noroeste 0 -- -- 82
2019-03-30 01:00:00 7.7 3 Noroeste 9 Oeste 0 -- -- 95
2019-03-30 00:00:00 7.4 5 Oeste 13 Noroeste 0 -- -- 92
2019-03-29 23:00:00 8.7 14 Noroeste 22 Noroeste 0 -- -- 80
2019-03-29 22:00:00 7.7 14 Norte 23 Norte 0 -- -- 85
2019-03-29 21:00:00 7.5 21 Noroeste 28 Noroeste 0 -- -- 89
2019-03-29 20:00:00 8 18 Noroeste 26 Noroeste 0.2 -- -- 90
2019-03-29 19:00:00 8.4 19 Noroeste 27 Noroeste 0.8 -- -- 95
2019-03-29 18:00:00 8.8 8 Noroeste 23 Noroeste 0.2 -- -- 90
2019-03-29 17:00:00 9.8 15 Noroeste 24 Noroeste 0 -- -- 92
2019-03-29 16:00:00 11.1 8 Noroeste 15 Noroeste 0 -- -- 94
2019-03-29 15:00:00 11.2 6 Noroeste 17 Noroeste 0.2 -- -- 93
2019-03-29 14:00:00 11.7 8 Noroeste 14 Noroeste 0.2 -- -- 91
2019-03-29 13:00:00 11.5 5 Oeste 16 Oeste 7.2 -- -- 94
2019-03-29 12:00:00 14.2 4 Sur 18 Sudeste 0 -- -- 79
2019-03-29 11:00:00 14 8 Sudeste 15 Sudeste 0 -- -- 96
2019-03-29 10:00:00 12.2 4 Sur 11 Sur 0 -- -- 98
2019-03-29 09:00:00 10.5 7 Sudeste 11 Sudeste 0.4 -- -- 97
2019-03-29 08:00:00 9.9 4 Sudeste 10 Sudeste 0 -- -- 97
2019-03-29 07:00:00 8.6 5 Este 10 Sudeste 0 -- -- 97
2019-03-29 06:00:00 8.5 0 Calma 4 Este 0 -- -- 96
2019-03-29 05:00:00 8.5 0 Calma 10 Norte 0 -- -- 95
2019-03-29 04:00:00 9.1 2 Nordeste 7 Este 0 -- -- 94
2019-03-29 03:00:00 10.5 3 Sudeste 12 Sudeste 0 -- -- 96
2019-03-29 02:00:00 10.8 5 Sudeste 13 Este 0 -- -- 96
2019-03-29 01:00:00 10.9 6 Sudeste 12 Sudeste 0 -- -- 96
2019-03-29 00:00:00 10.7 4 Sudeste 8 Sudeste 0 -- -- 95
2019-03-28 23:00:00 11.1 6 Sudeste 11 Sudeste 0 -- -- 95
2019-03-28 22:00:00 11.2 6 Este 10 Sudeste 0 -- -- 94
2019-03-28 21:00:00 11.3 5 Sudeste 8 Sudeste 0 -- -- 94
2019-03-28 20:00:00 11.6 5 Sudeste 8 Sudeste 0 -- -- 92
2019-03-28 19:00:00 11.8 0 Calma 4 Nordeste 0 -- -- 90
2019-03-28 18:00:00 12.1 0 Calma 5 Sudoeste 0 -- -- 88
2019-03-28 17:00:00 12.6 2 Oeste 9 Sur 0 -- -- 82
2019-03-28 16:00:00 13.7 6 Sudeste 14 Sudeste 0 -- -- 83
2019-03-28 15:00:00 14.9 7 Sudeste 18 Sur 0 -- -- 77
2019-03-28 14:00:00 18.1 10 Sur 22 Sudeste 0 -- -- 65
2019-03-28 13:00:00 19.1 13 Sudeste 22 Sur 0 -- -- 62
2019-03-28 12:00:00 18.6 14 Sur 23 Sur 0 -- -- 68
2019-03-28 11:00:00 17.2 12 Sur 20 Sur 0 -- -- 71
2019-03-28 10:00:00 15.8 9 Sur 16 Sudeste 0 -- -- 73
2019-03-28 09:00:00 12.6 5 Sudeste 12 Sudeste 0 -- -- 84
2019-03-28 08:00:00 9.3 5 Sudeste 7 Sudeste 0 -- -- 96
2019-03-28 07:00:00 7.9 2 Este 15 Norte 0 -- -- 92
2019-03-28 06:00:00 9.2 10 Norte 19 Norte 0 -- -- 92
2019-03-28 05:00:00 9.1 11 Norte 15 Norte 0 -- -- 92
2019-03-28 04:00:00 8.9 10 Norte 14 Norte 0 -- -- 94
2019-03-28 03:00:00 8.9 0 Calma 17 Noroeste 0 -- -- 93
2019-03-28 02:00:00 9.6 10 Norte 18 Norte 0 -- -- 94
2019-03-28 01:00:00 10.1 11 Norte 20 Nordeste 0 -- -- 95
2019-03-28 00:00:00 10 8 Norte 22 Noroeste 0 -- -- 93
2019-03-27 23:00:00 10.2 13 Norte 24 Norte 0 -- -- 94
2019-03-27 22:00:00 10.3 12 Noroeste 33 Noroeste 0 -- -- 95
2019-03-27 21:00:00 10.4 20 Noroeste 31 Noroeste 0 -- -- 95
2019-03-27 20:00:00 10.5 21 Noroeste 30 Noroeste 0 -- -- 94
2019-03-27 19:00:00 10.9 20 Noroeste 31 Noroeste 0 -- -- 91
2019-03-27 18:00:00 11.6 19 Noroeste 29 Noroeste 0 -- -- 88
2019-03-27 17:00:00 12.6 13 Noroeste 26 Noroeste 0 -- -- 82
2019-03-27 16:00:00 13.2 10 Noroeste 22 Noroeste 0 -- -- 79
2019-03-27 15:00:00 15.3 8 Noroeste 22 Norte 0 -- -- 72
2019-03-27 14:00:00 14.7 9 Oeste 18 Noroeste 0 -- -- 80
2019-03-27 13:00:00 15.3 6 Noroeste 22 Noroeste 0 -- -- 75
2019-03-27 12:00:00 14.5 9 Noroeste 26 Oeste 0 -- -- 79
2019-03-27 11:00:00 13.1 10 Noroeste 21 Noroeste 0 -- -- 89
2019-03-27 10:00:00 11.1 10 Noroeste 24 Noroeste 0 -- -- 96
2019-03-27 09:00:00 10.7 10 Norte 35 Oeste 0 -- -- 97
2019-03-27 08:00:00 10.2 17 Noroeste 31 Noroeste 0 -- -- 98
2019-03-27 07:00:00 10.4 7 Noroeste 28 Noroeste 0 -- -- 97
2019-03-27 06:00:00 10.5 12 Noroeste 26 Noroeste 0 -- -- 97
2019-03-27 05:00:00 10.7 13 Noroeste 28 Noroeste 0 -- -- 97
2019-03-27 04:00:00 10.8 5 Oeste 32 Norte 0.2 -- -- 97
2019-03-27 03:00:00 10.8 17 Noroeste 39 Noroeste 0 -- -- 97
2019-03-27 02:00:00 10.6 19 Noroeste 34 Noroeste 0 -- -- 97
2019-03-27 01:00:00 10.9 14 Noroeste 30 Noroeste 0.2 -- -- 97
2019-03-27 00:00:00 11 13 Noroeste 35 Noroeste 0 -- -- 96